sensor_id;sensor_type;location;lat;lon;timestamp;temperature;humidity
7048;DHT22;3565;53.254;10.352;2022-08-19T00:00:45;19.00;99.90
7048;DHT22;3565;53.254;10.352;2022-08-19T00:03:14;18.90;99.90
7048;DHT22;3565;53.254;10.352;2022-08-19T00:13:11;18.60;99.90
7048;DHT22;3565;53.254;10.352;2022-08-19T00:15:40;18.60;99.90
7048;DHT22;3565;53.254;10.352;2022-08-19T00:18:11;18.60;99.90
7048;DHT22;3565;53.254;10.352;2022-08-19T00:20:40;18.60;99.90
7048;DHT22;3565;53.254;10.352;2022-08-19T00:23:09;18.60;99.90
7048;DHT22;3565;53.254;10.352;2022-08-19T00:25:39;18.50;99.90
7048;DHT22;3565;53.254;10.352;2022-08-19T00:30:37;18.60;99.90
7048;DHT22;3565;53.254;10.352;2022-08-19T00:33:07;18.60;99.90
7048;DHT22;3565;53.254;10.352;2022-08-19T00:38:06;18.60;99.90
7048;DHT22;3565;53.254;10.352;2022-08-19T00:40:35;18.50;99.90
7048;DHT22;3565;53.254;10.352;2022-08-19T00:43:09;18.50;99.90
7048;DHT22;3565;53.254;10.352;2022-08-19T00:45:41;18.40;99.90
7048;DHT22;3565;53.254;10.352;2022-08-19T00:50:41;18.40;99.90
7048;DHT22;3565;53.254;10.352;2022-08-19T00:53:12;18.50;99.90
7048;DHT22;3565;53.254;10.352;2022-08-19T00:55:43;18.50;99.90
7048;DHT22;3565;53.254;10.352;2022-08-19T01:00:43;18.50;99.90
7048;DHT22;3565;53.254;10.352;2022-08-19T01:05:44;18.50;99.90
7048;DHT22;3565;53.254;10.352;2022-08-19T01:08:15;18.50;99.90
7048;DHT22;3565;53.254;10.352;2022-08-19T01:10:47;18.50;99.90
7048;DHT22;3565;53.254;10.352;2022-08-19T01:15:48;18.50;99.90
7048;DHT22;3565;53.254;10.352;2022-08-19T01:21:00;18.40;99.90
7048;DHT22;3565;53.254;10.352;2022-08-19T01:23:30;18.40;99.90
7048;DHT22;3565;53.254;10.352;2022-08-19T01:28:42;18.40;99.90
7048;DHT22;3565;53.254;10.352;2022-08-19T01:31:14;18.40;99.90
7048;DHT22;3565;53.254;10.352;2022-08-19T01:36:14;18.30;99.90
7048;DHT22;3565;53.254;10.352;2022-08-19T01:38:44;18.30;99.90
7048;DHT22;3565;53.254;10.352;2022-08-19T01:41:13;18.40;99.90
7048;DHT22;3565;53.254;10.352;2022-08-19T01:43:42;18.40;99.90
7048;DHT22;3565;53.254;10.352;2022-08-19T01:46:11;18.50;99.90
7048;DHT22;3565;53.254;10.352;2022-08-19T01:48:42;18.50;99.90
7048;DHT22;3565;53.254;10.352;2022-08-19T01:51:12;18.50;99.90
7048;DHT22;3565;53.254;10.352;2022-08-19T01:56:09;18.50;99.90
7048;DHT22;3565;53.254;10.352;2022-08-19T01:58:40;18.50;99.90
7048;DHT22;3565;53.254;10.352;2022-08-19T02:01:10;18.50;99.90
7048;DHT22;3565;53.254;10.352;2022-08-19T02:06:08;18.40;99.90
7048;DHT22;3565;53.254;10.352;2022-08-19T02:08:39;18.40;99.90
7048;DHT22;3565;53.254;10.352;2022-08-19T02:11:08;18.40;99.90
7048;DHT22;3565;53.254;10.352;2022-08-19T02:13:37;18.30;99.90
7048;DHT22;3565;53.254;10.352;2022-08-19T02:16:06;18.30;99.90
7048;DHT22;3565;53.254;10.352;2022-08-19T02:18:35;18.30;99.90
7048;DHT22;3565;53.254;10.352;2022-08-19T02:21:05;18.30;99.90
7048;DHT22;3565;53.254;10.352;2022-08-19T02:23:33;18.30;99.90
7048;DHT22;3565;53.254;10.352;2022-08-19T02:26:02;18.30;99.90
7048;DHT22;3565;53.254;10.352;2022-08-19T02:28:31;18.30;99.90
7048;DHT22;3565;53.254;10.352;2022-08-19T02:31:01;18.30;99.90
7048;DHT22;3565;53.254;10.352;2022-08-19T02:33:30;18.30;99.90
7048;DHT22;3565;53.254;10.352;2022-08-19T02:35:59;18.20;99.90
7048;DHT22;3565;53.254;10.352;2022-08-19T02:38:28;18.20;99.90
7048;DHT22;3565;53.254;10.352;2022-08-19T02:43:28;18.20;99.90
7048;DHT22;3565;53.254;10.352;2022-08-19T02:45:57;18.30;99.90
7048;DHT22;3565;53.254;10.352;2022-08-19T02:48:26;18.30;99.90
7048;DHT22;3565;53.254;10.352;2022-08-19T02:50:55;18.20;99.90
7048;DHT22;3565;53.254;10.352;2022-08-19T02:53:26;18.20;99.90
7048;DHT22;3565;53.254;10.352;2022-08-19T02:58:24;18.10;99.90
7048;DHT22;3565;53.254;10.352;2022-08-19T03:03:23;18.20;99.90
7048;DHT22;3565;53.254;10.352;2022-08-19T03:06:01;18.10;99.90
7048;DHT22;3565;53.254;10.352;2022-08-19T03:08:23;18.20;99.90
7048;DHT22;3565;53.254;10.352;2022-08-19T03:10:53;18.10;99.90
7048;DHT22;3565;53.254;10.352;2022-08-19T03:13:22;18.10;99.90
7048;DHT22;3565;53.254;10.352;2022-08-19T03:18:19;18.10;99.90
7048;DHT22;3565;53.254;10.352;2022-08-19T03:20:50;18.10;99.90
7048;DHT22;3565;53.254;10.352;2022-08-19T03:23:22;18.10;99.90
7048;DHT22;3565;53.254;10.352;2022-08-19T03:25:52;18.10;99.90
7048;DHT22;3565;53.254;10.352;2022-08-19T03:28:22;18.20;99.90
7048;DHT22;3565;53.254;10.352;2022-08-19T03:30:59;18.10;99.90
7048;DHT22;3565;53.254;10.352;2022-08-19T03:38:32;18.20;99.90
7048;DHT22;3565;53.254;10.352;2022-08-19T03:41:05;18.30;99.90
7048;DHT22;3565;53.254;10.352;2022-08-19T03:43:38;18.30;99.90
7048;DHT22;3565;53.254;10.352;2022-08-19T03:46:09;18.20;99.90
7048;DHT22;3565;53.254;10.352;2022-08-19T03:48:40;18.10;99.90
7048;DHT22;3565;53.254;10.352;2022-08-19T03:51:15;18.20;99.90
7048;DHT22;3565;53.254;10.352;2022-08-19T03:53:44;18.20;99.90
7048;DHT22;3565;53.254;10.352;2022-08-19T03:56:14;18.20;99.90
7048;DHT22;3565;53.254;10.352;2022-08-19T03:58:44;18.30;99.90
7048;DHT22;3565;53.254;10.352;2022-08-19T04:01:15;18.30;99.90
7048;DHT22;3565;53.254;10.352;2022-08-19T04:03:45;18.30;99.90
7048;DHT22;3565;53.254;10.352;2022-08-19T04:06:17;18.20;99.90
7048;DHT22;3565;53.254;10.352;2022-08-19T04:08:49;18.20;99.90
7048;DHT22;3565;53.254;10.352;2022-08-19T04:11:20;18.20;99.90
7048;DHT22;3565;53.254;10.352;2022-08-19T04:13:50;18.20;99.90
7048;DHT22;3565;53.254;10.352;2022-08-19T04:16:21;18.20;99.90
7048;DHT22;3565;53.254;10.352;2022-08-19T04:18:50;18.10;99.90
7048;DHT22;3565;53.254;10.352;2022-08-19T04:21:21;18.10;99.90
7048;DHT22;3565;53.254;10.352;2022-08-19T04:23:51;18.10;99.90
7048;DHT22;3565;53.254;10.352;2022-08-19T04:26:22;18.10;99.90
7048;DHT22;3565;53.254;10.352;2022-08-19T04:28:52;18.10;99.90
7048;DHT22;3565;53.254;10.352;2022-08-19T04:31:24;18.10;99.90
7048;DHT22;3565;53.254;10.352;2022-08-19T04:33:54;18.10;99.90
7048;DHT22;3565;53.254;10.352;2022-08-19T04:38:56;18.10;99.90
7048;DHT22;3565;53.254;10.352;2022-08-19T04:41:25;18.10;99.90
7048;DHT22;3565;53.254;10.352;2022-08-19T04:44:13;18.10;99.90
7048;DHT22;3565;53.254;10.352;2022-08-19T04:46:44;18.20;99.90
7048;DHT22;3565;53.254;10.352;2022-08-19T04:49:15;18.20;99.90
7048;DHT22;3565;53.254;10.352;2022-08-19T04:51:45;18.10;99.90
7048;DHT22;3565;53.254;10.352;2022-08-19T04:54:15;18.10;99.90
7048;DHT22;3565;53.254;10.352;2022-08-19T04:56:45;18.20;99.90
7048;DHT22;3565;53.254;10.352;2022-08-19T04:59:14;18.20;99.90
7048;DHT22;3565;53.254;10.352;2022-08-19T05:01:43;18.20;99.90
7048;DHT22;3565;53.254;10.352;2022-08-19T05:04:14;18.20;99.90
7048;DHT22;3565;53.254;10.352;2022-08-19T05:06:43;18.30;99.90
7048;DHT22;3565;53.254;10.352;2022-08-19T05:11:39;18.30;99.90
7048;DHT22;3565;53.254;10.352;2022-08-19T05:14:09;18.30;99.90
7048;DHT22;3565;53.254;10.352;2022-08-19T05:16:40;18.30;99.90
7048;DHT22;3565;53.254;10.352;2022-08-19T05:24:52;18.40;99.90
7048;DHT22;3565;53.254;10.352;2022-08-19T05:27:21;18.30;99.90
7048;DHT22;3565;53.254;10.352;2022-08-19T05:29:51;18.30;99.90
7048;DHT22;3565;53.254;10.352;2022-08-19T05:32:20;18.30;99.90
7048;DHT22;3565;53.254;10.352;2022-08-19T05:34:51;18.30;99.90
7048;DHT22;3565;53.254;10.352;2022-08-19T05:37:20;18.40;99.90
7048;DHT22;3565;53.254;10.352;2022-08-19T05:39:49;18.30;99.90
7048;DHT22;3565;53.254;10.352;2022-08-19T05:42:18;18.40;99.90
7048;DHT22;3565;53.254;10.352;2022-08-19T05:44:50;18.40;99.90
7048;DHT22;3565;53.254;10.352;2022-08-19T05:47:20;18.30;99.90
7048;DHT22;3565;53.254;10.352;2022-08-19T05:49:51;18.30;99.90
7048;DHT22;3565;53.254;10.352;2022-08-19T05:52:22;18.40;99.90
7048;DHT22;3565;53.254;10.352;2022-08-19T05:54:52;18.40;99.90
7048;DHT22;3565;53.254;10.352;2022-08-19T05:57:23;18.40;99.90
7048;DHT22;3565;53.254;10.352;2022-08-19T05:59:52;18.50;99.90
7048;DHT22;3565;53.254;10.352;2022-08-19T06:02:22;18.50;99.90
7048;DHT22;3565;53.254;10.352;2022-08-19T06:04:51;18.50;99.90
7048;DHT22;3565;53.254;10.352;2022-08-19T06:07:20;18.60;99.90
7048;DHT22;3565;53.254;10.352;2022-08-19T06:09:50;18.30;99.90
7048;DHT22;3565;53.254;10.352;2022-08-19T06:12:19;18.60;99.90
7048;DHT22;3565;53.254;10.352;2022-08-19T06:14:50;18.70;99.90
7048;DHT22;3565;53.254;10.352;2022-08-19T06:17:20;18.70;99.90
7048;DHT22;3565;53.254;10.352;2022-08-19T06:19:51;18.80;99.90
7048;DHT22;3565;53.254;10.352;2022-08-19T06:22:20;18.80;99.90
7048;DHT22;3565;53.254;10.352;2022-08-19T06:24:49;18.90;99.90
7048;DHT22;3565;53.254;10.352;2022-08-19T06:27:20;19.00;99.90
7048;DHT22;3565;53.254;10.352;2022-08-19T06:29:50;19.00;99.90
7048;DHT22;3565;53.254;10.352;2022-08-19T06:37:39;18.70;99.90
7048;DHT22;3565;53.254;10.352;2022-08-19T06:40:10;18.80;99.90
7048;DHT22;3565;53.254;10.352;2022-08-19T06:45:09;18.70;99.90
7048;DHT22;3565;53.254;10.352;2022-08-19T06:52:36;18.60;99.90
7048;DHT22;3565;53.254;10.352;2022-08-19T06:57:36;18.60;99.90
7048;DHT22;3565;53.254;10.352;2022-08-19T07:00:07;18.70;99.90
7048;DHT22;3565;53.254;10.352;2022-08-19T07:02:38;18.70;99.90
7048;DHT22;3565;53.254;10.352;2022-08-19T07:07:36;18.60;99.90
7048;DHT22;3565;53.254;10.352;2022-08-19T07:17:32;18.60;99.90
7048;DHT22;3565;53.254;10.352;2022-08-19T07:27:32;18.60;99.90
7048;DHT22;3565;53.254;10.352;2022-08-19T07:30:01;18.60;99.90
7048;DHT22;3565;53.254;10.352;2022-08-19T07:35:00;18.60;99.90
7048;DHT22;3565;53.254;10.352;2022-08-19T07:37:30;18.60;99.90
7048;DHT22;3565;53.254;10.352;2022-08-19T07:40:00;18.60;99.90
7048;DHT22;3565;53.254;10.352;2022-08-19T07:44:58;18.60;99.90
7048;DHT22;3565;53.254;10.352;2022-08-19T07:49:55;18.60;99.90
7048;DHT22;3565;53.254;10.352;2022-08-19T07:57:20;18.60;99.90
7048;DHT22;3565;53.254;10.352;2022-08-19T07:59:49;18.70;99.90
7048;DHT22;3565;53.254;10.352;2022-08-19T08:10:18;18.70;99.90
7048;DHT22;3565;53.254;10.352;2022-08-19T08:22:45;18.70;99.90
7048;DHT22;3565;53.254;10.352;2022-08-19T08:25:33;18.80;99.90
7048;DHT22;3565;53.254;10.352;2022-08-19T08:28:04;18.80;99.90
7048;DHT22;3565;53.254;10.352;2022-08-19T08:30:33;18.80;99.90
7048;DHT22;3565;53.254;10.352;2022-08-19T08:38:02;18.80;99.90
7048;DHT22;3565;53.254;10.352;2022-08-19T08:48:04;18.70;99.90
7048;DHT22;3565;53.254;10.352;2022-08-19T08:50:37;18.80;99.90
7048;DHT22;3565;53.254;10.352;2022-08-19T08:53:06;18.80;99.90
7048;DHT22;3565;53.254;10.352;2022-08-19T09:03:06;18.70;99.90
7048;DHT22;3565;53.254;10.352;2022-08-19T09:08:08;18.90;99.90
7048;DHT22;3565;53.254;10.352;2022-08-19T09:10:39;18.90;99.90
7048;DHT22;3565;53.254;10.352;2022-08-19T09:18:10;18.80;99.90
7048;DHT22;3565;53.254;10.352;2022-08-19T09:20:39;18.80;99.90
7048;DHT22;3565;53.254;10.352;2022-08-19T09:25:36;18.80;99.90
7048;DHT22;3565;53.254;10.352;2022-08-19T09:33:07;18.80;99.90
7048;DHT22;3565;53.254;10.352;2022-08-19T09:52:54;19.10;99.90
7048;DHT22;3565;53.254;10.352;2022-08-19T10:02:50;19.30;99.90
7048;DHT22;3565;53.254;10.352;2022-08-19T10:13:04;19.30;99.90
7048;DHT22;3565;53.254;10.352;2022-08-19T10:22:59;19.80;99.90
7048;DHT22;3565;53.254;10.352;2022-08-19T10:25:28;19.90;99.90
7048;DHT22;3565;53.254;10.352;2022-08-19T10:30:25;20.10;99.90
7048;DHT22;3565;53.254;10.352;2022-08-19T10:32:55;20.20;99.90
7048;DHT22;3565;53.254;10.352;2022-08-19T10:35:24;20.20;99.90
7048;DHT22;3565;53.254;10.352;2022-08-19T10:37:53;20.10;99.90
7048;DHT22;3565;53.254;10.352;2022-08-19T10:45:20;20.40;99.90
7048;DHT22;3565;53.254;10.352;2022-08-19T10:47:51;20.30;99.90
7048;DHT22;3565;53.254;10.352;2022-08-19T10:53:07;20.40;99.90
7048;DHT22;3565;53.254;10.352;2022-08-19T10:55:36;20.40;99.90
7048;DHT22;3565;53.254;10.352;2022-08-19T11:00:55;20.30;99.90
7048;DHT22;3565;53.254;10.352;2022-08-19T11:25:54;20.30;99.90
7048;DHT22;3565;53.254;10.352;2022-08-19T11:28:24;20.60;99.90
7048;DHT22;3565;53.254;10.352;2022-08-19T11:33:21;20.60;99.90
7048;DHT22;3565;53.254;10.352;2022-08-19T11:35:50;20.60;99.90
7048;DHT22;3565;53.254;10.352;2022-08-19T11:43:23;21.10;99.90
7048;DHT22;3565;53.254;10.352;2022-08-19T11:53:20;21.20;99.90
7048;DHT22;3565;53.254;10.352;2022-08-19T11:55:49;21.20;99.90
7048;DHT22;3565;53.254;10.352;2022-08-19T12:00:46;21.10;99.90
7048;DHT22;3565;53.254;10.352;2022-08-19T12:03:15;21.00;99.90
7048;DHT22;3565;53.254;10.352;2022-08-19T12:05:45;20.90;99.90
7048;DHT22;3565;53.254;10.352;2022-08-19T12:23:11;20.90;99.90
7048;DHT22;3565;53.254;10.352;2022-08-19T12:25:44;21.10;99.90
7048;DHT22;3565;53.254;10.352;2022-08-19T12:28:15;21.10;99.90
7048;DHT22;3565;53.254;10.352;2022-08-19T12:33:12;21.10;99.90
7048;DHT22;3565;53.254;10.352;2022-08-19T12:38:10;21.20;99.90
7048;DHT22;3565;53.254;10.352;2022-08-19T12:40:38;21.20;99.90
7048;DHT22;3565;53.254;10.352;2022-08-19T12:43:08;21.20;99.90
7048;DHT22;3565;53.254;10.352;2022-08-19T12:45:39;21.20;99.90
7048;DHT22;3565;53.254;10.352;2022-08-19T12:48:08;21.10;99.90
7048;DHT22;3565;53.254;10.352;2022-08-19T12:50:39;21.10;99.90
7048;DHT22;3565;53.254;10.352;2022-08-19T12:53:08;21.30;99.90
7048;DHT22;3565;53.254;10.352;2022-08-19T12:55:37;21.60;99.90
7048;DHT22;3565;53.254;10.352;2022-08-19T12:58:06;21.70;99.90
7048;DHT22;3565;53.254;10.352;2022-08-19T13:00:36;21.60;99.90
7048;DHT22;3565;53.254;10.352;2022-08-19T13:03:05;21.40;99.90
7048;DHT22;3565;53.254;10.352;2022-08-19T13:08:03;21.20;99.90
7048;DHT22;3565;53.254;10.352;2022-08-19T13:13:04;21.30;99.90
7048;DHT22;3565;53.254;10.352;2022-08-19T13:15:37;21.20;99.90
7048;DHT22;3565;53.254;10.352;2022-08-19T13:20:38;21.20;99.90
7048;DHT22;3565;53.254;10.352;2022-08-19T13:23:09;21.20;99.90
7048;DHT22;3565;53.254;10.352;2022-08-19T13:25:38;21.40;99.90
7048;DHT22;3565;53.254;10.352;2022-08-19T13:30:36;21.80;99.90
7048;DHT22;3565;53.254;10.352;2022-08-19T13:33:23;22.10;99.90
7048;DHT22;3565;53.254;10.352;2022-08-19T13:35:57;22.70;99.90
7048;DHT22;3565;53.254;10.352;2022-08-19T13:38:28;22.70;99.90
7048;DHT22;3565;53.254;10.352;2022-08-19T13:41:03;24.20;99.90
7048;DHT22;3565;53.254;10.352;2022-08-19T13:43:29;24.20;99.90
7048;DHT22;3565;53.254;10.352;2022-08-19T13:45:59;24.30;99.90
7048;DHT22;3565;53.254;10.352;2022-08-19T13:48:28;24.60;99.90
7048;DHT22;3565;53.254;10.352;2022-08-19T13:50:58;24.50;99.90
7048;DHT22;3565;53.254;10.352;2022-08-19T13:53:28;24.70;99.90
7048;DHT22;3565;53.254;10.352;2022-08-19T13:55:58;24.60;99.90
7048;DHT22;3565;53.254;10.352;2022-08-19T13:58:27;24.60;99.90
7048;DHT22;3565;53.254;10.352;2022-08-19T14:00:57;24.60;99.90
7048;DHT22;3565;53.254;10.352;2022-08-19T14:05:56;24.00;99.90
7048;DHT22;3565;53.254;10.352;2022-08-19T14:08:25;23.60;99.90
7048;DHT22;3565;53.254;10.352;2022-08-19T14:10:55;23.60;99.90
7048;DHT22;3565;53.254;10.352;2022-08-19T14:13:25;23.80;99.90
7048;DHT22;3565;53.254;10.352;2022-08-19T14:15:54;24.00;99.90
7048;DHT22;3565;53.254;10.352;2022-08-19T14:18:23;24.50;99.90
7048;DHT22;3565;53.254;10.352;2022-08-19T14:20:53;24.40;99.90
7048;DHT22;3565;53.254;10.352;2022-08-19T14:23:22;24.80;99.90
7048;DHT22;3565;53.254;10.352;2022-08-19T14:25:50;25.80;99.90
7048;DHT22;3565;53.254;10.352;2022-08-19T14:28:21;25.80;99.90
7048;DHT22;3565;53.254;10.352;2022-08-19T14:30:50;25.30;99.90
7048;DHT22;3565;53.254;10.352;2022-08-19T14:33:20;24.90;99.90
7048;DHT22;3565;53.254;10.352;2022-08-19T14:35:49;25.00;99.90
7048;DHT22;3565;53.254;10.352;2022-08-19T14:38:19;25.50;99.90
7048;DHT22;3565;53.254;10.352;2022-08-19T14:40:48;26.10;99.90
7048;DHT22;3565;53.254;10.352;2022-08-19T14:43:19;25.90;99.90
7048;DHT22;3565;53.254;10.352;2022-08-19T14:45:50;26.10;99.90
7048;DHT22;3565;53.254;10.352;2022-08-19T14:48:19;26.00;99.90
7048;DHT22;3565;53.254;10.352;2022-08-19T14:50:49;26.00;99.90
7048;DHT22;3565;53.254;10.352;2022-08-19T14:53:18;25.70;99.90
7048;DHT22;3565;53.254;10.352;2022-08-19T14:55:50;25.60;99.90
7048;DHT22;3565;53.254;10.352;2022-08-19T14:58:20;25.70;99.90
7048;DHT22;3565;53.254;10.352;2022-08-19T15:00:51;25.60;99.90
7048;DHT22;3565;53.254;10.352;2022-08-19T15:03:23;26.10;99.90
7048;DHT22;3565;53.254;10.352;2022-08-19T15:05:56;25.80;99.90
7048;DHT22;3565;53.254;10.352;2022-08-19T15:08:25;25.70;99.90
7048;DHT22;3565;53.254;10.352;2022-08-19T15:10:55;25.70;99.90
7048;DHT22;3565;53.254;10.352;2022-08-19T15:13:27;25.90;99.90
7048;DHT22;3565;53.254;10.352;2022-08-19T15:15:57;26.30;99.90
7048;DHT22;3565;53.254;10.352;2022-08-19T15:18:27;26.30;99.90
7048;DHT22;3565;53.254;10.352;2022-08-19T15:20:57;26.80;97.50
7048;DHT22;3565;53.254;10.352;2022-08-19T15:23:26;27.20;75.20
7048;DHT22;3565;53.254;10.352;2022-08-19T15:25:55;27.00;90.20
7048;DHT22;3565;53.254;10.352;2022-08-19T15:28:25;26.70;96.80
7048;DHT22;3565;53.254;10.352;2022-08-19T15:30:57;26.60;99.90
7048;DHT22;3565;53.254;10.352;2022-08-19T15:33:26;26.80;94.50
7048;DHT22;3565;53.254;10.352;2022-08-19T15:35:56;27.70;67.90
7048;DHT22;3565;53.254;10.352;2022-08-19T15:38:26;27.70;44.10
7048;DHT22;3565;53.254;10.352;2022-08-19T15:40:58;27.70;34.80
7048;DHT22;3565;53.254;10.352;2022-08-19T15:43:29;26.80;93.50
7048;DHT22;3565;53.254;10.352;2022-08-19T15:45:59;26.80;91.20
7048;DHT22;3565;53.254;10.352;2022-08-19T15:48:28;26.80;94.00
7048;DHT22;3565;53.254;10.352;2022-08-19T15:50:58;26.50;98.30
7048;DHT22;3565;53.254;10.352;2022-08-19T15:53:27;25.80;99.90
7048;DHT22;3565;53.254;10.352;2022-08-19T15:58:24;25.50;99.90
7048;DHT22;3565;53.254;10.352;2022-08-19T16:01:11;25.20;99.90
7048;DHT22;3565;53.254;10.352;2022-08-19T16:07:01;24.80;99.90
7048;DHT22;3565;53.254;10.352;2022-08-19T16:09:31;24.90;99.90
7048;DHT22;3565;53.254;10.352;2022-08-19T16:12:03;25.30;99.90
7048;DHT22;3565;53.254;10.352;2022-08-19T16:14:34;25.80;99.90
7048;DHT22;3565;53.254;10.352;2022-08-19T16:17:04;25.60;99.90
7048;DHT22;3565;53.254;10.352;2022-08-19T16:19:33;25.30;99.90
7048;DHT22;3565;53.254;10.352;2022-08-19T16:24:30;25.80;99.90
7048;DHT22;3565;53.254;10.352;2022-08-19T16:27:00;26.10;91.70
7048;DHT22;3565;53.254;10.352;2022-08-19T16:29:29;26.00;90.80
7048;DHT22;3565;53.254;10.352;2022-08-19T16:32:00;26.10;99.90
7048;DHT22;3565;53.254;10.352;2022-08-19T16:34:29;26.40;95.40
7048;DHT22;3565;53.254;10.352;2022-08-19T16:36:58;26.70;80.00
7048;DHT22;3565;53.254;10.352;2022-08-19T16:39:27;26.80;39.90
7048;DHT22;3565;53.254;10.352;2022-08-19T16:41:56;26.90;55.50
7048;DHT22;3565;53.254;10.352;2022-08-19T16:44:25;26.40;60.00
7048;DHT22;3565;53.254;10.352;2022-08-19T16:46:54;26.60;83.20
7048;DHT22;3565;53.254;10.352;2022-08-19T16:49:23;26.80;54.20
7048;DHT22;3565;53.254;10.352;2022-08-19T16:51:52;26.60;66.70
7048;DHT22;3565;53.254;10.352;2022-08-19T16:54:21;26.20;71.50
7048;DHT22;3565;53.254;10.352;2022-08-19T16:56:50;26.20;65.70
7048;DHT22;3565;53.254;10.352;2022-08-19T16:59:19;26.30;74.90
7048;DHT22;3565;53.254;10.352;2022-08-19T17:01:48;26.10;72.80
7048;DHT22;3565;53.254;10.352;2022-08-19T17:04:18;25.70;79.70
7048;DHT22;3565;53.254;10.352;2022-08-19T17:09:15;25.50;99.90
7048;DHT22;3565;53.254;10.352;2022-08-19T17:11:45;25.60;99.90
7048;DHT22;3565;53.254;10.352;2022-08-19T17:14:14;25.90;96.20
7048;DHT22;3565;53.254;10.352;2022-08-19T17:16:44;26.20;85.70
7048;DHT22;3565;53.254;10.352;2022-08-19T17:19:14;26.20;89.30
7048;DHT22;3565;53.254;10.352;2022-08-19T17:21:43;26.40;57.50
7048;DHT22;3565;53.254;10.352;2022-08-19T17:24:13;26.10;85.70
7048;DHT22;3565;53.254;10.352;2022-08-19T17:26:42;26.50;64.70
7048;DHT22;3565;53.254;10.352;2022-08-19T17:29:11;26.20;70.30
7048;DHT22;3565;53.254;10.352;2022-08-19T17:31:40;26.20;75.10
7048;DHT22;3565;53.254;10.352;2022-08-19T17:34:09;25.50;86.30
7048;DHT22;3565;53.254;10.352;2022-08-19T17:36:38;25.30;86.00
7048;DHT22;3565;53.254;10.352;2022-08-19T17:39:08;25.10;97.20
7048;DHT22;3565;53.254;10.352;2022-08-19T17:41:37;25.20;99.80
7048;DHT22;3565;53.254;10.352;2022-08-19T17:44:06;25.10;99.90
7048;DHT22;3565;53.254;10.352;2022-08-19T17:46:35;24.90;99.90
7048;DHT22;3565;53.254;10.352;2022-08-19T17:49:04;24.90;99.90
7048;DHT22;3565;53.254;10.352;2022-08-19T17:56:37;24.70;99.90
7048;DHT22;3565;53.254;10.352;2022-08-19T17:59:06;24.70;99.90
7048;DHT22;3565;53.254;10.352;2022-08-19T18:16:29;23.20;99.90
7048;DHT22;3565;53.254;10.352;2022-08-19T18:18:59;23.10;99.90
7048;DHT22;3565;53.254;10.352;2022-08-19T18:21:28;23.00;99.90
7048;DHT22;3565;53.254;10.352;2022-08-19T18:26:27;22.70;99.90
7048;DHT22;3565;53.254;10.352;2022-08-19T18:38:49;22.30;99.90
7048;DHT22;3565;53.254;10.352;2022-08-19T18:41:36;22.20;99.90
7048;DHT22;3565;53.254;10.352;2022-08-19T18:44:23;22.10;99.90
7048;DHT22;3565;53.254;10.352;2022-08-19T18:47:09;21.80;99.90
7048;DHT22;3565;53.254;10.352;2022-08-19T18:49:56;21.80;99.90
7048;DHT22;3565;53.254;10.352;2022-08-19T18:54:55;21.60;99.90
7048;DHT22;3565;53.254;10.352;2022-08-19T18:57:25;21.50;99.90
7048;DHT22;3565;53.254;10.352;2022-08-19T18:59:54;21.40;99.90
7048;DHT22;3565;53.254;10.352;2022-08-19T19:02:23;21.30;99.90
7048;DHT22;3565;53.254;10.352;2022-08-19T19:07:22;21.00;99.90
7048;DHT22;3565;53.254;10.352;2022-08-19T19:12:21;20.80;99.90
7048;DHT22;3565;53.254;10.352;2022-08-19T19:17:20;20.60;99.90
7048;DHT22;3565;53.254;10.352;2022-08-19T19:19:51;20.50;99.90
7048;DHT22;3565;53.254;10.352;2022-08-19T19:22:21;20.50;99.90
7048;DHT22;3565;53.254;10.352;2022-08-19T19:24:51;20.40;99.90
7048;DHT22;3565;53.254;10.352;2022-08-19T19:27:22;20.30;99.90
7048;DHT22;3565;53.254;10.352;2022-08-19T19:32:21;20.10;99.90
7048;DHT22;3565;53.254;10.352;2022-08-19T19:44:44;19.70;99.90
7048;DHT22;3565;53.254;10.352;2022-08-19T19:47:15;19.70;99.90
7048;DHT22;3565;53.254;10.352;2022-08-19T19:49:45;19.60;99.90
7048;DHT22;3565;53.254;10.352;2022-08-19T19:57:12;19.50;99.90
7048;DHT22;3565;53.254;10.352;2022-08-19T20:02:10;19.40;99.90
7048;DHT22;3565;53.254;10.352;2022-08-19T20:04:41;19.40;99.90
7048;DHT22;3565;53.254;10.352;2022-08-19T20:09:38;19.30;99.90
7048;DHT22;3565;53.254;10.352;2022-08-19T20:12:07;19.30;99.90
7048;DHT22;3565;53.254;10.352;2022-08-19T20:17:05;19.20;99.90
7048;DHT22;3565;53.254;10.352;2022-08-19T20:19:34;19.20;99.90
7048;DHT22;3565;53.254;10.352;2022-08-19T20:22:04;19.10;99.90
7048;DHT22;3565;53.254;10.352;2022-08-19T20:24:35;19.10;99.90
7048;DHT22;3565;53.254;10.352;2022-08-19T20:27:05;19.00;99.90
7048;DHT22;3565;53.254;10.352;2022-08-19T20:39:28;18.90;99.90
7048;DHT22;3565;53.254;10.352;2022-08-19T20:49:21;18.70;99.90
7048;DHT22;3565;53.254;10.352;2022-08-19T20:51:50;18.70;99.90
7048;DHT22;3565;53.254;10.352;2022-08-19T20:56:47;18.70;99.90
7048;DHT22;3565;53.254;10.352;2022-08-19T21:01:46;18.60;99.90
7048;DHT22;3565;53.254;10.352;2022-08-19T21:04:15;18.60;99.90
7048;DHT22;3565;53.254;10.352;2022-08-19T21:26:29;18.50;99.90
7048;DHT22;3565;53.254;10.352;2022-08-19T21:28:58;18.50;99.90
7048;DHT22;3565;53.254;10.352;2022-08-19T21:43:48;18.30;99.90
7048;DHT22;3565;53.254;10.352;2022-08-19T21:56:09;18.30;99.90
7048;DHT22;3565;53.254;10.352;2022-08-19T21:58:38;18.30;99.90
7048;DHT22;3565;53.254;10.352;2022-08-19T22:03:36;18.30;99.90
7048;DHT22;3565;53.254;10.352;2022-08-19T22:13:33;18.20;99.90
7048;DHT22;3565;53.254;10.352;2022-08-19T22:16:05;18.30;99.90
7048;DHT22;3565;53.254;10.352;2022-08-19T22:18:34;18.30;99.90
7048;DHT22;3565;53.254;10.352;2022-08-19T22:21:03;18.20;99.90
7048;DHT22;3565;53.254;10.352;2022-08-19T22:28:29;18.20;99.90
7048;DHT22;3565;53.254;10.352;2022-08-19T22:35:56;18.20;99.90
7048;DHT22;3565;53.254;10.352;2022-08-19T22:38:25;18.10;99.90
7048;DHT22;3565;53.254;10.352;2022-08-19T22:40:54;18.10;99.90
7048;DHT22;3565;53.254;10.352;2022-08-19T22:48:24;18.10;99.90
7048;DHT22;3565;53.254;10.352;2022-08-19T22:50:54;18.10;99.90
7048;DHT22;3565;53.254;10.352;2022-08-19T22:53:42;18.10;99.90
7048;DHT22;3565;53.254;10.352;2022-08-19T22:58:41;18.10;99.90
7048;DHT22;3565;53.254;10.352;2022-08-19T23:23:26;17.90;99.90
7048;DHT22;3565;53.254;10.352;2022-08-19T23:25:56;17.90;99.90
7048;DHT22;3565;53.254;10.352;2022-08-19T23:28:25;17.80;99.90
7048;DHT22;3565;53.254;10.352;2022-08-19T23:33:40;17.80;99.90
7048;DHT22;3565;53.254;10.352;2022-08-19T23:38:41;17.80;99.90
7048;DHT22;3565;53.254;10.352;2022-08-19T23:46:11;17.90;99.90
7048;DHT22;3565;53.254;10.352;2022-08-19T23:53:39;17.90;99.90
7048;DHT22;3565;53.254;10.352;2022-08-19T23:56:10;17.90;99.90
